Schneifelwetter: Wetterstation Hallschlag, 537 m . NN
Wetterdaten: Mittwoch, 06.04.2011
Datum Zeit Temp. A. Feuchte A. Luftdruck Regen Wind Richtung Richtung Sonnenschein Helligkeit T Regen Taupunkt Windchill
06.04.2011 00:02 7,0 C 89 % 1025 hPa 0,0 l/m 18,3 km/h (3 Bft) W-SW22.5 240 0 min 0 lux 0,00 min 5,3 C 0,1 C
06.04.2011 00:17 7,0 C 90 % 1025 hPa 0,0 l/m 18,2 km/h (3 Bft) W-SW22.5 250 0 min 0 lux 0,00 min 5,5 C 0,1 C
06.04.2011 00:32 7,0 C 90 % 1025 hPa 0,0 l/m 22,8 km/h (4 Bft) W-SW22.5 255 0 min 0 lux 0,00 min 5,5 C -1,6 C
06.04.2011 00:47 7,1 C 90 % 1025 hPa 0,0 l/m 22,6 km/h (4 Bft) W22.5 260 0 min 0 lux 0,00 min 5,6 C -1,4 C
06.04.2011 01:02 7,1 C 91 % 1025 hPa 0,0 l/m 25,8 km/h (4 Bft) W-SW22.5 250 0 min 0 lux 0,00 min 5,7 C -2,3 C
06.04.2011 01:17 7,2 C 91 % 1025 hPa 0,0 l/m 27,3 km/h (4 Bft) W-SW22.5 250 0 min 0 lux 0,00 min 5,8 C -2,6 C
06.04.2011 01:32 7,0 C 91 % 1025 hPa 0,0 l/m 20,4 km/h (4 Bft) W-SW22.5 250 0 min 0 lux 0,00 min 5,6 C -0,7 C
06.04.2011 01:47 6,9 C 91 % 1025 hPa 0,0 l/m 25,4 km/h (4 Bft) W-SW22.5 255 0 min 0 lux 0,00 min 5,5 C -2,5 C
06.04.2011 02:02 6,8 C 92 % 1025 hPa 0,0 l/m 23,0 km/h (4 Bft) W-SW22.5 250 0 min 0 lux 0,00 min 5,6 C -1,9 C
06.04.2011 02:17 6,9 C 92 % 1025 hPa 0,0 l/m 17,6 km/h (3 Bft) W-SW22.5 250 0 min 0 lux 0,00 min 5,7 C 0,2 C
06.04.2011 02:32 6,9 C 92 % 1025 hPa 0,0 l/m 20,2 km/h (4 Bft) W-SW22.5 255 0 min 0 lux 0,00 min 5,7 C -0,8 C
06.04.2011 02:47 6,9 C 92 % 1025 hPa 0,0 l/m 28,4 km/h (4 Bft) W-SW45 255 0 min 0 lux 0,00 min 5,7 C -3,3 C
06.04.2011 03:02 6,8 C 92 % 1025 hPa 0,0 l/m 26,2 km/h (4 Bft) W45 260 0 min 0 lux 0,00 min 5,6 C -2,9 C
06.04.2011 03:17 7,0 C 93 % 1025 hPa 0,0 l/m 20,6 km/h (4 Bft) W-SW22.5 255 0 min 0 lux 0,00 min 5,9 C -0,8 C
06.04.2011 03:32 7,1 C 92 % 1025 hPa 0,0 l/m 26,8 km/h (4 Bft) W-SW22.5 250 0 min 0 lux 0,00 min 5,9 C -2,6 C
06.04.2011 03:47 7,2 C 93 % 1025 hPa 0,0 l/m 16,2 km/h (3 Bft) W22.5 260 0 min 0 lux 0,00 min 6,1 C 1,2 C
06.04.2011 04:02 7,3 C 92 % 1024 hPa 0,0 l/m 17,8 km/h (3 Bft) W-SW22.5 250 0 min 0 lux 0,00 min 6,1 C 0,6 C
06.04.2011 04:17 7,4 C 92 % 1024 hPa 0,0 l/m 22,8 km/h (4 Bft) W-SW45 250 0 min 0 lux 0,00 min 6,2 C -1,0 C
06.04.2011 04:32 7,6 C 92 % 1024 hPa 0,0 l/m 17,0 km/h (3 Bft) W22.5 260 0 min 0 lux 0,00 min 6,4 C 1,3 C
06.04.2011 04:47 7,9 C 93 % 1024 hPa 0,0 l/m 19,7 km/h (3 Bft) W22.5 265 0 min 0 lux 0,00 min 6,8 C 0,7 C
06.04.2011 05:02 8,2 C 91 % 1024 hPa 0,0 l/m 19,1 km/h (3 Bft) W22.5 260 0 min 0 lux 0,00 min 6,8 C 1,3 C
06.04.2011 05:17 8,1 C 90 % 1024 hPa 0,0 l/m 27,1 km/h (4 Bft) W45 275 0 min 0 lux 0,00 min 6,6 C -1,3 C
06.04.2011 05:32 8,1 C 90 % 1024 hPa 0,0 l/m 18,7 km/h (3 Bft) W22.5 265 0 min 0 lux 0,00 min 6,6 C 1,3 C
06.04.2011 05:47 8,4 C 91 % 1024 hPa 0,0 l/m 23,0 km/h (4 Bft) W22.5 265 0 min 0 lux 0,00 min 7,0 C 0,2 C
06.04.2011 06:02 8,5 C 91 % 1025 hPa 0,0 l/m 20,6 km/h (4 Bft) W22.5 265 0 min 0 lux 0,00 min 7,1 C 1,1 C
06.04.2011 06:17 8,6 C 91 % 1025 hPa 0,0 l/m 17,5 km/h (3 Bft) W-SW22.5 250 0 min 0 lux 0,00 min 7,2 C 2,4 C
06.04.2011 06:32 8,6 C 91 % 1025 hPa 0,0 l/m 25,6 km/h (4 Bft) W-SW22.5 250 0 min 0 lux 0,00 min 7,2 C -0,2 C
06.04.2011 06:47 8,8 C 91 % 1025 hPa 0,0 l/m 19,7 km/h (3 Bft) W-SW22.5 255 0 min 0 lux 0,00 min 7,4 C 1,8 C
06.04.2011 07:02 8,8 C 91 % 1025 hPa 0,0 l/m 18,4 km/h (3 Bft) W22.5 260 0 min 159 lux 0,00 min 7,4 C 2,3 C
06.04.2011 07:17 8,8 C 91 % 1025 hPa 0,0 l/m 16,4 km/h (3 Bft) W-SW45 245 0 min 655 lux 0,00 min 7,4 C 3,1 C
06.04.2011 07:32 9,1 C 91 % 1025 hPa 0,0 l/m 22,5 km/h (4 Bft) W45 260 0 min 2,26 klux 0,00 min 7,7 C 1,3 C
06.04.2011 07:47 9,2 C 90 % 1026 hPa 0,0 l/m 16,3 km/h (3 Bft) W-SW22.5 255 0 min 2,72 klux 0,00 min 7,6 C 3,6 C
06.04.2011 08:02 9,3 C 90 % 1026 hPa 0,0 l/m 25,0 km/h (4 Bft) W-SW22.5 245 0 min 5,14 klux 0,00 min 7,7 C 0,9 C
06.04.2011 08:17 9,6 C 90 % 1026 hPa 0,0 l/m 17,4 km/h (3 Bft) W22.5 260 0 min 6,14 klux 0,00 min 8,0 C 3,7 C
06.04.2011 08:32 9,9 C 90 % 1026 hPa 0,0 l/m 16,8 km/h (3 Bft) W45 270 0 min 8,23 klux 0,00 min 8,3 C 4,3 C
06.04.2011 08:47 10,1 C 89 % 1026 hPa 0,0 l/m 28,6 km/h (4 Bft) W45 260 0 min 10,8 klux 0,00 min 8,4 C 1,1 C
06.04.2011 09:02 10,4 C 88 % 1026 hPa 0,0 l/m 28,3 km/h (4 Bft) W22.5 260 0 min 12,3 klux 0,00 min 8,5 C 1,6 C
06.04.2011 09:17 10,9 C 88 % 1026 hPa 0,0 l/m 24,4 km/h (4 Bft) W-SW22.5 250 0 min 14,6 klux 0,00 min 9,0 C 3,2 C
06.04.2011 09:31 11,3 C 88 % 1027 hPa 0,0 l/m 23,4 km/h (4 Bft) W-SW22.5 245 0 min 18,8 klux 0,00 min 9,4 C 4,0 C
06.04.2011 09:47 11,9 C 87 % 1027 hPa 0,0 l/m 25,4 km/h (4 Bft) W22.5 260 0 min 20,9 klux 0,00 min 9,8 C 4,3 C
06.04.2011 10:02 12,1 C 86 % 1026 hPa 0,0 l/m 25,6 km/h (4 Bft) W-SW22.5 255 0 min 21,5 klux 0,00 min 9,8 C 4,5 C
06.04.2011 10:17 12,2 C 86 % 1027 hPa 0,0 l/m 20,6 km/h (4 Bft) W22.5 260 0 min 19,8 klux 0,00 min 9,9 C 6,0 C
06.04.2011 10:32 12,4 C 86 % 1027 hPa 0,0 l/m 22,3 km/h (4 Bft) W22.5 260 0 min 24,6 klux 0,00 min 10,1 C 5,8 C
06.04.2011 10:47 12,9 C 85 % 1027 hPa 0,0 l/m 21,0 km/h (4 Bft) W22.5 260 0 min 24,2 klux 0,00 min 10,4 C 6,8 C
06.04.2011 11:01 13,4 C 84 % 1027 hPa 0,0 l/m 27,4 km/h (4 Bft) W22.5 260 0 min 27,7 klux 0,00 min 10,8 C 5,9 C
06.04.2011 11:16 13,6 C 82 % 1027 hPa 0,0 l/m 23,4 km/h (4 Bft) W-SW67.5 255 0 min 27,0 klux 0,00 min 10,6 C 7,1 C
06.04.2011 11:32 13,8 C 81 % 1027 hPa 0,0 l/m 27,7 km/h (4 Bft) W22.5 265 0 min 28,0 klux 0,00 min 10,6 C 6,4 C
06.04.2011 11:47 14,2 C 80 % 1027 hPa 0,0 l/m 23,6 km/h (4 Bft) W22.5 265 0 min 28,4 klux 0,00 min 10,8 C 7,8 C
06.04.2011 12:02 14,7 C 80 % 1027 hPa 0,0 l/m 21,1 km/h (4 Bft) W45 260 0 min 30,1 klux 0,00 min 11,3 C 9,1 C
06.04.2011 12:17 15,4 C 79 % 1027 hPa 0,0 l/m 30,7 km/h (5 Bft) W-SW22.5 250 0 min 46,9 klux 0,00 min 11,8 C 8,1 C
06.04.2011 12:32 15,7 C 79 % 1027 hPa 0,0 l/m 27,3 km/h (4 Bft) W-SW45 250 15 min 64,9 klux 0,00 min 12,1 C 9,1 C
06.04.2011 12:46 16,5 C 78 % 1027 hPa 0,0 l/m 22,0 km/h (4 Bft) W-SW22.5 250 14 min 54,1 klux 0,00 min 12,6 C 11,2 C
06.04.2011 13:02 16,8 C 77 % 1027 hPa 0,0 l/m 26,3 km/h (4 Bft) W-SW22.5 255 16 min 73,4 klux 0,00 min 12,7 C 10,8 C
06.04.2011 13:17 17,2 C 76 % 1027 hPa 0,0 l/m 25,6 km/h (4 Bft) W-SW22.5 255 15 min 72,6 klux 0,00 min 12,9 C 11,5 C
06.04.2011 13:32 17,2 C 76 % 1027 hPa 0,0 l/m 29,7 km/h (5 Bft) W-SW22.5 255 15 min 72,6 klux 0,00 min 12,9 C 10,8 C
06.04.2011 13:47 17,4 C 75 % 1027 hPa 0,0 l/m 23,6 km/h (4 Bft) W45 260 15 min 71,9 klux 0,00 min 12,9 C 12,1 C
06.04.2011 14:02 17,5 C 75 % 1027 hPa 0,0 l/m 23,1 km/h (4 Bft) W-SW45 240 15 min 74,8 klux 0,00 min 13,0 C 12,3 C
06.04.2011 14:16 17,8 C 74 % 1027 hPa 0,0 l/m 29,7 km/h (5 Bft) W45 260 14 min 72,8 klux 0,00 min 13,1 C 11,7 C
06.04.2011 14:31 18,1 C 75 % 1027 hPa 0,0 l/m 26,5 km/h (4 Bft) W-SW22.5 255 15 min 76,4 klux 0,00 min 13,6 C 12,6 C
06.04.2011 14:47 18,3 C 70 % 1027 hPa 0,0 l/m 25,1 km/h (4 Bft) W-SW22.5 255 16 min 74,5 klux 0,00 min 12,7 C 13,1 C
06.04.2011 15:02 18,4 C 72 % 1027 hPa 0,0 l/m 25,9 km/h (4 Bft) W22.5 260 15 min 70,4 klux 0,00 min 13,3 C 13,1 C
06.04.2011 15:17 18,5 C 72 % 1027 hPa 0,0 l/m 23,8 km/h (4 Bft) W-SW45 250 15 min 70,0 klux 0,00 min 13,4 C 13,6 C
06.04.2011 15:32 18,6 C 71 % 1026 hPa 0,0 l/m 23,5 km/h (4 Bft) W-SW22.5 250 15 min 68,7 klux 0,00 min 13,2 C 13,7 C
06.04.2011 15:47 18,7 C 70 % 1026 hPa 0,0 l/m 20,2 km/h (4 Bft) W22.5 260 15 min 67,3 klux 0,00 min 13,1 C 14,5 C
06.04.2011 16:01 19,0 C 70 % 1026 hPa 0,0 l/m 21,0 km/h (4 Bft) W-SW45 240 14 min 64,2 klux 0,00 min 13,4 C 14,7 C
06.04.2011 16:17 19,0 C 69 % 1026 hPa 0,0 l/m 21,9 km/h (4 Bft) W-SW22.5 250 16 min 58,5 klux 0,00 min 13,2 C 14,6 C
06.04.2011 16:32 19,1 C 67 % 1026 hPa 0,0 l/m 28,5 km/h (4 Bft) W22.5 260 15 min 60,0 klux 0,00 min 12,8 C 13,7 C
06.04.2011 16:47 19,2 C 67 % 1026 hPa 0,0 l/m 19,2 km/h (3 Bft) W-SW22.5 240 15 min 58,0 klux 0,00 min 12,9 C 15,3 C
06.04.2011 17:02 19,3 C 65 % 1026 hPa 0,0 l/m 17,9 km/h (3 Bft) W45 275 0 min 52,2 klux 0,00 min 12,6 C 15,7 C
06.04.2011 17:17 19,2 C 66 % 1026 hPa 0,0 l/m 21,0 km/h (4 Bft) W-SW22.5 255 0 min 49,3 klux 0,00 min 12,7 C 15,0 C
06.04.2011 17:32 19,3 C 66 % 1026 hPa 0,0 l/m 18,2 km/h (3 Bft) W22.5 270 0 min 46,1 klux 0,00 min 12,8 C 15,7 C
06.04.2011 17:46 19,3 C 65 % 1026 hPa 0,0 l/m 10,3 km/h (2 Bft) W22.5 275 0 min 44,7 klux 0,00 min 12,6 C 17,8 C
06.04.2011 18:02 19,4 C 65 % 1026 hPa 0,0 l/m 12,4 km/h (3 Bft) W22.5 270 0 min 41,0 klux 0,00 min 12,6 C 17,2 C
06.04.2011 18:17 19,2 C 66 % 1026 hPa 0,0 l/m 13,8 km/h (3 Bft) W 265 0 min 36,4 klux 0,00 min 12,7 C 16,6 C
06.04.2011 18:32 19,0 C 66 % 1026 hPa 0,0 l/m 13,0 km/h (3 Bft) W-SW45 255 0 min 35,1 klux 0,00 min 12,5 C 16,6 C
06.04.2011 18:47 18,7 C 67 % 1026 hPa 0,0 l/m 8,2 km/h (2 Bft) W22.5 270 0 min 30,9 klux 0,00 min 12,4 C 17,9 C
06.04.2011 19:02 18,6 C 67 % 1026 hPa 0,0 l/m 11,0 km/h (2 Bft) W22.5 260 0 min 28,4 klux 0,00 min 12,3 C 16,7 C
06.04.2011 19:16 18,2 C 68 % 1026 hPa 0,0 l/m 11,1 km/h (2 Bft) W22.5 270 0 min 17,6 klux 0,00 min 12,2 C 16,3 C
06.04.2011 19:32 17,7 C 69 % 1026 hPa 0,0 l/m 6,3 km/h (2 Bft) W 265 0 min 16,4 klux 0,00 min 11,9 C 17,7 C
06.04.2011 19:47 17,3 C 71 % 1026 hPa 0,0 l/m 0,3 km/h (0 Bft) NW 310 0 min 11,6 klux 0,00 min 12,0 C 17,3 C
06.04.2011 20:02 16,6 C 71 % 1026 hPa 0,0 l/m 0,0 km/h (0 Bft) NW 310 0 min 6,70 klux 0,00 min 11,3 C 16,6 C
06.04.2011 20:17 15,4 C 73 % 1026 hPa 0,0 l/m 0,0 km/h (0 Bft) NW 310 0 min 1,62 klux 0,00 min 10,6 C 15,4 C
06.04.2011 20:32 14,1 C 75 % 1026 hPa 0,0 l/m 0,0 km/h (0 Bft) NW 310 0 min 459 lux 0,00 min 9,7 C 14,1 C
06.04.2011 20:47 12,9 C 78 % 1026 hPa 0,0 l/m 0,0 km/h (0 Bft) NW 310 0 min 131 lux 0,00 min 9,2 C 12,9 C
06.04.2011 21:01 12,0 C 80 % 1026 hPa 0,0 l/m 4,0 km/h (1 Bft) NW 310 0 min 7 lux 0,00 min 8,7 C 12,0 C
06.04.2011 21:17 11,6 C 83 % 1026 hPa 0,0 l/m 0,0 km/h (0 Bft) NW 310 0 min 0 lux 0,00 min 8,8 C 11,6 C
06.04.2011 21:32 11,2 C 83 % 1026 hPa 0,0 l/m 0,0 km/h (0 Bft) NW 310 0 min 0 lux 0,00 min 8,4 C 11,2 C
06.04.2011 21:47 10,8 C 85 % 1026 hPa 0,0 l/m 0,0 km/h (0 Bft) NW 310 0 min 0 lux 0,00 min 8,4 C 10,8 C
06.04.2011 22:02 10,4 C 85 % 1026 hPa 0,0 l/m 0,0 km/h (0 Bft) NW 310 0 min 0 lux 0,00 min 8,0 C 10,4 C
06.04.2011 22:17 10,0 C 87 % 1026 hPa 0,0 l/m 0,0 km/h (0 Bft) NW 310 0 min 0 lux 0,00 min 7,9 C 10,0 C
06.04.2011 22:32 9,7 C 87 % 1026 hPa 0,0 l/m 0,0 km/h (0 Bft) NW 310 0 min 0 lux 0,00 min 7,6 C 9,7 C
06.04.2011 22:46 9,4 C 88 % 1026 hPa 0,0 l/m 0,0 km/h (0 Bft) NW 310 0 min 0 lux 0,00 min 7,5 C 9,4 C
06.04.2011 23:02 9,0 C 88 % 1026 hPa 0,0 l/m 0,0 km/h (0 Bft) NW 310 0 min 0 lux 0,00 min 7,1 C 9,0 C
06.04.2011 23:17 8,6 C 89 % 1026 hPa 0,0 l/m 0,0 km/h (0 Bft) NW 310 0 min 0 lux 0,00 min 6,9 C 8,6 C
06.04.2011 23:32 8,5 C 90 % 1025 hPa 0,0 l/m 0,0 km/h (0 Bft) NW 310 0 min 0 lux 0,00 min 7,0 C 8,5 C
06.04.2011 23:47 8,1 C 90 % 1025 hPa 0,0 l/m 0,0 km/h (0 Bft) NW 310 0 min 0 lux 0,00 min 6,6 C 8,1 C
_ Min-Zeit 02:02 17:02 04:02 - 20:02 - - - - - 00:02 02:47
Minimum _ 6,8 C 65 % 1024 hPa - 0,0 km/h (0 Bft) - - - - - 5,3 C -3,3 C
_ Max-Zeit 18:02 03:17 09:31 00:02 12:17 - - 13:02 14:31 00:02 14:31 18:47
Maximum _ 19,4 C 93 % 1027 hPa 0,0 l/m 30,7 km/h
W-SW (5 Bft)
- - 16 min 76,4 klux 0,00 min 13,6 C 17,9 C
Durchschnitt _ 12,4 C 82 % 1026 hPa #0,0 l/m 17,8 km/h (3 Bft) W-SW - #4:30 h 21,1 klux #0 min. 9,3 C 7,2 C